sensor_id;sensor_type;location;lat;lon;timestamp;P1;durP1;ratioP1;P2;durP2;ratioP2
10246;SDS011;5168;47.854;7.944;2022-09-27T00:00:02;1.70;;;1.60;;
10246;SDS011;5168;47.854;7.944;2022-09-27T00:02:29;1.80;;;1.70;;
10246;SDS011;5168;47.854;7.944;2022-09-27T00:04:54;1.80;;;1.70;;
10246;SDS011;5168;47.854;7.944;2022-09-27T00:07:20;1.40;;;1.30;;
10246;SDS011;5168;47.854;7.944;2022-09-27T00:09:46;1.70;;;1.60;;
10246;SDS011;5168;47.854;7.944;2022-09-27T00:12:12;2.60;;;1.50;;
10246;SDS011;5168;47.854;7.944;2022-09-27T00:14:37;1.70;;;1.60;;
10246;SDS011;5168;47.854;7.944;2022-09-27T00:17:03;1.60;;;1.40;;
10246;SDS011;5168;47.854;7.944;2022-09-27T00:19:29;1.80;;;1.70;;
10246;SDS011;5168;47.854;7.944;2022-09-27T00:21:55;1.83;;;1.73;;
10246;SDS011;5168;47.854;7.944;2022-09-27T00:24:21;1.50;;;1.40;;
10246;SDS011;5168;47.854;7.944;2022-09-27T00:26:47;1.43;;;1.33;;
10246;SDS011;5168;47.854;7.944;2022-09-27T00:29:15;1.50;;;1.40;;
10246;SDS011;5168;47.854;7.944;2022-09-27T00:31:42;1.50;;;1.40;;
10246;SDS011;5168;47.854;7.944;2022-09-27T00:34:10;1.40;;;1.30;;
10246;SDS011;5168;47.854;7.944;2022-09-27T00:36:42;1.50;;;1.40;;
10246;SDS011;5168;47.854;7.944;2022-09-27T00:39:08;1.43;;;1.33;;
10246;SDS011;5168;47.854;7.944;2022-09-27T00:41:34;1.40;;;1.30;;
10246;SDS011;5168;47.854;7.944;2022-09-27T00:44:02;1.60;;;1.30;;
10246;SDS011;5168;47.854;7.944;2022-09-27T00:49:02;1.40;;;1.30;;
10246;SDS011;5168;47.854;7.944;2022-09-27T00:51:46;1.53;;;1.33;;
10246;SDS011;5168;47.854;7.944;2022-09-27T00:54:18;1.40;;;1.30;;
10246;SDS011;5168;47.854;7.944;2022-09-27T00:56:45;1.50;;;1.40;;
10246;SDS011;5168;47.854;7.944;2022-09-27T01:01:50;1.40;;;1.30;;
10246;SDS011;5168;47.854;7.944;2022-09-27T01:04:17;2.67;;;1.30;;
10246;SDS011;5168;47.854;7.944;2022-09-27T01:06:47;1.50;;;1.40;;
10246;SDS011;5168;47.854;7.944;2022-09-27T01:09:13;1.43;;;1.33;;
10246;SDS011;5168;47.854;7.944;2022-09-27T01:14:50;1.40;;;1.30;;
10246;SDS011;5168;47.854;7.944;2022-09-27T01:20:19;2.77;;;1.70;;
10246;SDS011;5168;47.854;7.944;2022-09-27T01:31:22;7.43;;;1.80;;
10246;SDS011;5168;47.854;7.944;2022-09-27T01:34:00;1.80;;;1.70;;
10246;SDS011;5168;47.854;7.944;2022-09-27T01:39:02;1.70;;;1.60;;
10246;SDS011;5168;47.854;7.944;2022-09-27T01:41:44;1.50;;;1.40;;
10246;SDS011;5168;47.854;7.944;2022-09-27T01:46:45;1.60;;;1.50;;
10246;SDS011;5168;47.854;7.944;2022-09-27T01:49:17;1.60;;;1.50;;
10246;SDS011;5168;47.854;7.944;2022-09-27T01:51:53;1.70;;;1.60;;
10246;SDS011;5168;47.854;7.944;2022-09-27T01:54:24;1.70;;;1.60;;
10246;SDS011;5168;47.854;7.944;2022-09-27T01:56:56;1.63;;;1.30;;
10246;SDS011;5168;47.854;7.944;2022-09-27T01:59:34;3.73;;;1.70;;
10246;SDS011;5168;47.854;7.944;2022-09-27T02:02:07;2.63;;;1.77;;
10246;SDS011;5168;47.854;7.944;2022-09-27T02:04:35;5.63;;;1.70;;
10246;SDS011;5168;47.854;7.944;2022-09-27T02:07:05;1.93;;;1.60;;
10246;SDS011;5168;47.854;7.944;2022-09-27T02:09:38;1.73;;;1.60;;
10246;SDS011;5168;47.854;7.944;2022-09-27T02:12:10;3.03;;;1.70;;
10246;SDS011;5168;47.854;7.944;2022-09-27T02:14:44;1.87;;;1.77;;
10246;SDS011;5168;47.854;7.944;2022-09-27T02:18:01;3.47;;;1.90;;
10246;SDS011;5168;47.854;7.944;2022-09-27T02:20:38;3.57;;;2.00;;
10246;SDS011;5168;47.854;7.944;2022-09-27T02:26:10;2.70;;;1.70;;
10246;SDS011;5168;47.854;7.944;2022-09-27T02:28:38;2.07;;;1.60;;
10246;SDS011;5168;47.854;7.944;2022-09-27T02:31:10;2.40;;;1.50;;
10246;SDS011;5168;47.854;7.944;2022-09-27T02:33:38;1.53;;;1.43;;
10246;SDS011;5168;47.854;7.944;2022-09-27T02:36:08;1.60;;;1.50;;
10246;SDS011;5168;47.854;7.944;2022-09-27T02:38:35;2.03;;;1.50;;
10246;SDS011;5168;47.854;7.944;2022-09-27T02:41:01;3.93;;;1.60;;
10246;SDS011;5168;47.854;7.944;2022-09-27T02:43:28;1.90;;;1.50;;
10246;SDS011;5168;47.854;7.944;2022-09-27T02:46:03;3.33;;;1.50;;
10246;SDS011;5168;47.854;7.944;2022-09-27T02:48:49;2.07;;;1.50;;
10246;SDS011;5168;47.854;7.944;2022-09-27T02:54:25;1.60;;;1.50;;
10246;SDS011;5168;47.854;7.944;2022-09-27T02:59:32;1.83;;;1.40;;
10246;SDS011;5168;47.854;7.944;2022-09-27T03:04:42;1.60;;;1.50;;
10246;SDS011;5168;47.854;7.944;2022-09-27T03:07:15;1.47;;;1.37;;
10246;SDS011;5168;47.854;7.944;2022-09-27T03:12:12;2.30;;;1.70;;
10246;SDS011;5168;47.854;7.944;2022-09-27T03:14:38;1.80;;;1.67;;
10246;SDS011;5168;47.854;7.944;2022-09-27T03:17:04;3.10;;;1.97;;
10246;SDS011;5168;47.854;7.944;2022-09-27T03:19:30;2.80;;;1.60;;
10246;SDS011;5168;47.854;7.944;2022-09-27T03:21:56;1.70;;;1.60;;
10246;SDS011;5168;47.854;7.944;2022-09-27T03:24:21;5.17;;;1.80;;
10246;SDS011;5168;47.854;7.944;2022-09-27T03:26:47;4.03;;;1.90;;
10246;SDS011;5168;47.854;7.944;2022-09-27T03:29:12;2.37;;;1.70;;
10246;SDS011;5168;47.854;7.944;2022-09-27T03:31:39;2.07;;;1.70;;
10246;SDS011;5168;47.854;7.944;2022-09-27T03:34:05;1.93;;;1.57;;
10246;SDS011;5168;47.854;7.944;2022-09-27T03:36:31;3.67;;;1.70;;
10246;SDS011;5168;47.854;7.944;2022-09-27T03:38:57;2.57;;;1.60;;
10246;SDS011;5168;47.854;7.944;2022-09-27T03:41:23;4.30;;;1.43;;
10246;SDS011;5168;47.854;7.944;2022-09-27T03:43:48;1.57;;;1.40;;
10246;SDS011;5168;47.854;7.944;2022-09-27T03:46:14;1.50;;;1.40;;
10246;SDS011;5168;47.854;7.944;2022-09-27T03:48:40;1.70;;;1.60;;
10246;SDS011;5168;47.854;7.944;2022-09-27T03:51:06;3.30;;;2.03;;
10246;SDS011;5168;47.854;7.944;2022-09-27T03:53:32;2.03;;;1.70;;
10246;SDS011;5168;47.854;7.944;2022-09-27T03:55:58;1.47;;;1.37;;
10246;SDS011;5168;47.854;7.944;2022-09-27T03:58:24;1.40;;;1.30;;
10246;SDS011;5168;47.854;7.944;2022-09-27T04:00:50;1.40;;;1.30;;
10246;SDS011;5168;47.854;7.944;2022-09-27T04:03:16;1.70;;;1.60;;
10246;SDS011;5168;47.854;7.944;2022-09-27T04:05:43;1.40;;;1.30;;
10246;SDS011;5168;47.854;7.944;2022-09-27T04:08:10;1.73;;;1.50;;
10246;SDS011;5168;47.854;7.944;2022-09-27T04:10:36;1.67;;;1.50;;
10246;SDS011;5168;47.854;7.944;2022-09-27T04:13:02;1.63;;;1.40;;
10246;SDS011;5168;47.854;7.944;2022-09-27T04:15:28;1.63;;;1.53;;
10246;SDS011;5168;47.854;7.944;2022-09-27T04:17:54;1.50;;;1.40;;
10246;SDS011;5168;47.854;7.944;2022-09-27T04:20:19;1.50;;;1.40;;
10246;SDS011;5168;47.854;7.944;2022-09-27T04:22:45;1.60;;;1.50;;
10246;SDS011;5168;47.854;7.944;2022-09-27T04:25:11;1.53;;;1.43;;
10246;SDS011;5168;47.854;7.944;2022-09-27T04:27:38;1.60;;;1.50;;
10246;SDS011;5168;47.854;7.944;2022-09-27T04:30:09;1.50;;;1.40;;
10246;SDS011;5168;47.854;7.944;2022-09-27T04:32:39;1.33;;;1.23;;
10246;SDS011;5168;47.854;7.944;2022-09-27T04:35:06;1.60;;;1.50;;
10246;SDS011;5168;47.854;7.944;2022-09-27T04:37:50;1.50;;;1.40;;
10246;SDS011;5168;47.854;7.944;2022-09-27T04:40:16;1.60;;;1.50;;
10246;SDS011;5168;47.854;7.944;2022-09-27T04:42:41;1.40;;;1.30;;
10246;SDS011;5168;47.854;7.944;2022-09-27T04:45:07;1.47;;;1.37;;
10246;SDS011;5168;47.854;7.944;2022-09-27T04:47:33;1.40;;;1.30;;
10246;SDS011;5168;47.854;7.944;2022-09-27T04:49:59;1.77;;;1.50;;
10246;SDS011;5168;47.854;7.944;2022-09-27T04:52:24;1.77;;;1.40;;
10246;SDS011;5168;47.854;7.944;2022-09-27T04:54:50;2.40;;;1.53;;
10246;SDS011;5168;47.854;7.944;2022-09-27T04:57:16;3.27;;;1.60;;
10246;SDS011;5168;47.854;7.944;2022-09-27T04:59:42;1.50;;;1.40;;
10246;SDS011;5168;47.854;7.944;2022-09-27T05:02:08;2.40;;;1.40;;
10246;SDS011;5168;47.854;7.944;2022-09-27T05:04:34;2.90;;;1.43;;
10246;SDS011;5168;47.854;7.944;2022-09-27T05:06:59;1.57;;;1.47;;
10246;SDS011;5168;47.854;7.944;2022-09-27T05:09:25;1.47;;;1.37;;
10246;SDS011;5168;47.854;7.944;2022-09-27T05:11:51;1.77;;;1.40;;
10246;SDS011;5168;47.854;7.944;2022-09-27T05:14:17;1.60;;;1.50;;
10246;SDS011;5168;47.854;7.944;2022-09-27T05:16:44;1.50;;;1.40;;
10246;SDS011;5168;47.854;7.944;2022-09-27T05:19:10;1.47;;;1.37;;
10246;SDS011;5168;47.854;7.944;2022-09-27T05:21:35;2.23;;;1.50;;
10246;SDS011;5168;47.854;7.944;2022-09-27T05:24:01;1.40;;;1.30;;
10246;SDS011;5168;47.854;7.944;2022-09-27T05:26:27;1.70;;;1.60;;
10246;SDS011;5168;47.854;7.944;2022-09-27T05:28:52;1.70;;;1.60;;
10246;SDS011;5168;47.854;7.944;2022-09-27T05:31:18;1.30;;;1.20;;
10246;SDS011;5168;47.854;7.944;2022-09-27T05:33:44;1.50;;;1.40;;
10246;SDS011;5168;47.854;7.944;2022-09-27T05:36:09;1.47;;;1.37;;
10246;SDS011;5168;47.854;7.944;2022-09-27T05:38:36;1.50;;;1.40;;
10246;SDS011;5168;47.854;7.944;2022-09-27T05:41:02;1.33;;;1.23;;
10246;SDS011;5168;47.854;7.944;2022-09-27T05:43:29;1.67;;;1.40;;
10246;SDS011;5168;47.854;7.944;2022-09-27T05:45:55;1.70;;;1.47;;
10246;SDS011;5168;47.854;7.944;2022-09-27T05:48:21;1.60;;;1.50;;
10246;SDS011;5168;47.854;7.944;2022-09-27T05:50:47;1.70;;;1.60;;
10246;SDS011;5168;47.854;7.944;2022-09-27T05:53:12;3.93;;;1.70;;
10246;SDS011;5168;47.854;7.944;2022-09-27T05:55:38;1.60;;;1.50;;
10246;SDS011;5168;47.854;7.944;2022-09-27T05:58:05;1.60;;;1.50;;
10246;SDS011;5168;47.854;7.944;2022-09-27T06:00:32;1.70;;;1.60;;
10246;SDS011;5168;47.854;7.944;2022-09-27T06:03:00;2.07;;;1.87;;
10246;SDS011;5168;47.854;7.944;2022-09-27T06:05:28;1.50;;;1.40;;
10246;SDS011;5168;47.854;7.944;2022-09-27T06:07:59;1.70;;;1.60;;
10246;SDS011;5168;47.854;7.944;2022-09-27T06:10:30;2.20;;;1.53;;
10246;SDS011;5168;47.854;7.944;2022-09-27T06:12:59;1.70;;;1.60;;
10246;SDS011;5168;47.854;7.944;2022-09-27T06:15:26;1.47;;;1.30;;
10246;SDS011;5168;47.854;7.944;2022-09-27T06:17:52;2.37;;;1.53;;
10246;SDS011;5168;47.854;7.944;2022-09-27T06:20:18;1.70;;;1.60;;
10246;SDS011;5168;47.854;7.944;2022-09-27T06:22:44;1.60;;;1.50;;
10246;SDS011;5168;47.854;7.944;2022-09-27T06:25:10;1.30;;;1.20;;
10246;SDS011;5168;47.854;7.944;2022-09-27T06:27:36;1.90;;;1.50;;
10246;SDS011;5168;47.854;7.944;2022-09-27T06:30:02;1.40;;;1.30;;
10246;SDS011;5168;47.854;7.944;2022-09-27T06:32:28;1.60;;;1.50;;
10246;SDS011;5168;47.854;7.944;2022-09-27T06:34:54;1.40;;;1.30;;
10246;SDS011;5168;47.854;7.944;2022-09-27T06:37:23;1.73;;;1.63;;
10246;SDS011;5168;47.854;7.944;2022-09-27T06:39:50;1.50;;;1.40;;
10246;SDS011;5168;47.854;7.944;2022-09-27T06:42:17;2.23;;;1.40;;
10246;SDS011;5168;47.854;7.944;2022-09-27T06:44:43;1.50;;;1.40;;
10246;SDS011;5168;47.854;7.944;2022-09-27T06:47:11;1.47;;;1.37;;
10246;SDS011;5168;47.854;7.944;2022-09-27T06:49:37;1.67;;;1.37;;
10246;SDS011;5168;47.854;7.944;2022-09-27T06:52:04;1.53;;;1.43;;
10246;SDS011;5168;47.854;7.944;2022-09-27T06:54:30;1.70;;;1.60;;
10246;SDS011;5168;47.854;7.944;2022-09-27T06:56:56;1.50;;;1.40;;
10246;SDS011;5168;47.854;7.944;2022-09-27T06:59:22;1.73;;;1.60;;
10246;SDS011;5168;47.854;7.944;2022-09-27T07:02:06;2.60;;;1.50;;
10246;SDS011;5168;47.854;7.944;2022-09-27T07:04:32;2.17;;;1.80;;
10246;SDS011;5168;47.854;7.944;2022-09-27T07:06:58;1.67;;;1.57;;
10246;SDS011;5168;47.854;7.944;2022-09-27T07:09:23;2.50;;;1.67;;
10246;SDS011;5168;47.854;7.944;2022-09-27T07:11:49;2.20;;;2.03;;
10246;SDS011;5168;47.854;7.944;2022-09-27T07:14:15;2.10;;;1.90;;
10246;SDS011;5168;47.854;7.944;2022-09-27T07:16:41;1.97;;;1.60;;
10246;SDS011;5168;47.854;7.944;2022-09-27T07:19:07;1.67;;;1.57;;
10246;SDS011;5168;47.854;7.944;2022-09-27T07:21:35;1.70;;;1.60;;
10246;SDS011;5168;47.854;7.944;2022-09-27T07:24:01;2.67;;;1.97;;
10246;SDS011;5168;47.854;7.944;2022-09-27T07:26:28;1.80;;;1.70;;
10246;SDS011;5168;47.854;7.944;2022-09-27T07:28:53;2.00;;;1.80;;
10246;SDS011;5168;47.854;7.944;2022-09-27T07:31:20;2.37;;;1.90;;
10246;SDS011;5168;47.854;7.944;2022-09-27T07:33:46;3.33;;;2.60;;
10246;SDS011;5168;47.854;7.944;2022-09-27T07:36:12;3.57;;;2.30;;
10246;SDS011;5168;47.854;7.944;2022-09-27T07:38:38;4.07;;;2.77;;
10246;SDS011;5168;47.854;7.944;2022-09-27T07:41:05;6.60;;;2.40;;
10246;SDS011;5168;47.854;7.944;2022-09-27T07:43:36;2.67;;;2.47;;
10246;SDS011;5168;47.854;7.944;2022-09-27T07:46:02;4.10;;;2.20;;
10246;SDS011;5168;47.854;7.944;2022-09-27T07:48:27;3.03;;;2.30;;
10246;SDS011;5168;47.854;7.944;2022-09-27T07:50:53;5.90;;;2.30;;
10246;SDS011;5168;47.854;7.944;2022-09-27T07:53:18;2.30;;;2.07;;
10246;SDS011;5168;47.854;7.944;2022-09-27T07:55:48;3.00;;;2.40;;
10246;SDS011;5168;47.854;7.944;2022-09-27T07:58:17;3.50;;;2.40;;
10246;SDS011;5168;47.854;7.944;2022-09-27T08:00:43;2.20;;;2.00;;
10246;SDS011;5168;47.854;7.944;2022-09-27T08:03:09;3.77;;;2.40;;
10246;SDS011;5168;47.854;7.944;2022-09-27T08:05:40;4.30;;;2.63;;
10246;SDS011;5168;47.854;7.944;2022-09-27T08:08:07;3.77;;;2.60;;
10246;SDS011;5168;47.854;7.944;2022-09-27T08:10:33;4.17;;;2.60;;
10246;SDS011;5168;47.854;7.944;2022-09-27T08:12:59;5.63;;;3.40;;
10246;SDS011;5168;47.854;7.944;2022-09-27T08:15:30;3.37;;;2.40;;
10246;SDS011;5168;47.854;7.944;2022-09-27T08:17:56;3.90;;;2.93;;
10246;SDS011;5168;47.854;7.944;2022-09-27T08:20:22;3.93;;;2.23;;
10246;SDS011;5168;47.854;7.944;2022-09-27T08:22:48;2.63;;;2.17;;
10246;SDS011;5168;47.854;7.944;2022-09-27T08:25:14;2.73;;;2.23;;
10246;SDS011;5168;47.854;7.944;2022-09-27T08:27:40;3.93;;;2.80;;
10246;SDS011;5168;47.854;7.944;2022-09-27T08:30:06;3.27;;;2.80;;
10246;SDS011;5168;47.854;7.944;2022-09-27T08:32:32;6.03;;;2.70;;
10246;SDS011;5168;47.854;7.944;2022-09-27T08:34:58;5.60;;;3.10;;
10246;SDS011;5168;47.854;7.944;2022-09-27T08:37:24;4.23;;;2.70;;
10246;SDS011;5168;47.854;7.944;2022-09-27T08:39:50;5.77;;;2.60;;
10246;SDS011;5168;47.854;7.944;2022-09-27T08:45:07;3.20;;;2.27;;
10246;SDS011;5168;47.854;7.944;2022-09-27T08:47:43;5.07;;;2.23;;
10246;SDS011;5168;47.854;7.944;2022-09-27T08:50:21;2.60;;;2.40;;
10246;SDS011;5168;47.854;7.944;2022-09-27T08:58:25;2.90;;;1.90;;
10246;SDS011;5168;47.854;7.944;2022-09-27T09:01:05;2.90;;;2.40;;
10246;SDS011;5168;47.854;7.944;2022-09-27T09:03:37;4.37;;;2.40;;
10246;SDS011;5168;47.854;7.944;2022-09-27T09:11:45;3.30;;;1.97;;
10246;SDS011;5168;47.854;7.944;2022-09-27T09:22:58;3.00;;;2.20;;
10246;SDS011;5168;47.854;7.944;2022-09-27T09:31:22;2.10;;;1.90;;
10246;SDS011;5168;47.854;7.944;2022-09-27T09:37:03;3.93;;;2.03;;
10246;SDS011;5168;47.854;7.944;2022-09-27T09:39:32;3.53;;;2.40;;
10246;SDS011;5168;47.854;7.944;2022-09-27T09:42:06;4.17;;;2.13;;
10246;SDS011;5168;47.854;7.944;2022-09-27T09:45:03;3.93;;;2.10;;
10246;SDS011;5168;47.854;7.944;2022-09-27T09:47:52;4.07;;;2.17;;
10246;SDS011;5168;47.854;7.944;2022-09-27T09:50:40;2.90;;;2.30;;
10246;SDS011;5168;47.854;7.944;2022-09-27T09:53:11;6.27;;;2.30;;
10246;SDS011;5168;47.854;7.944;2022-09-27T09:55:38;2.13;;;1.83;;
10246;SDS011;5168;47.854;7.944;2022-09-27T09:58:26;2.27;;;2.07;;
10246;SDS011;5168;47.854;7.944;2022-09-27T10:00:59;2.57;;;1.93;;
10246;SDS011;5168;47.854;7.944;2022-09-27T10:03:42;2.10;;;2.00;;
10246;SDS011;5168;47.854;7.944;2022-09-27T10:06:08;3.03;;;2.03;;
10246;SDS011;5168;47.854;7.944;2022-09-27T10:08:35;2.47;;;1.90;;
10246;SDS011;5168;47.854;7.944;2022-09-27T10:11:01;3.50;;;2.10;;
10246;SDS011;5168;47.854;7.944;2022-09-27T10:13:29;2.50;;;2.30;;
10246;SDS011;5168;47.854;7.944;2022-09-27T10:16:00;2.83;;;1.97;;
10246;SDS011;5168;47.854;7.944;2022-09-27T10:18:29;2.23;;;2.07;;
10246;SDS011;5168;47.854;7.944;2022-09-27T10:20:58;3.97;;;2.20;;
10246;SDS011;5168;47.854;7.944;2022-09-27T10:23:28;4.40;;;1.80;;
10246;SDS011;5168;47.854;7.944;2022-09-27T10:26:00;2.50;;;2.20;;
10246;SDS011;5168;47.854;7.944;2022-09-27T10:28:38;2.67;;;2.27;;
10246;SDS011;5168;47.854;7.944;2022-09-27T10:31:08;2.90;;;2.00;;
10246;SDS011;5168;47.854;7.944;2022-09-27T10:33:36;3.97;;;1.97;;
10246;SDS011;5168;47.854;7.944;2022-09-27T10:36:06;3.27;;;2.03;;
10246;SDS011;5168;47.854;7.944;2022-09-27T10:38:54;2.00;;;1.80;;
10246;SDS011;5168;47.854;7.944;2022-09-27T10:47:04;2.67;;;1.87;;
10246;SDS011;5168;47.854;7.944;2022-09-27T10:49:41;3.07;;;1.90;;
10246;SDS011;5168;47.854;7.944;2022-09-27T10:52:09;3.87;;;1.83;;
10246;SDS011;5168;47.854;7.944;2022-09-27T10:54:51;2.20;;;2.00;;
10246;SDS011;5168;47.854;7.944;2022-09-27T10:57:23;5.40;;;2.27;;
10246;SDS011;5168;47.854;7.944;2022-09-27T11:00:01;3.30;;;2.10;;
10246;SDS011;5168;47.854;7.944;2022-09-27T11:03:07;4.50;;;2.37;;
10246;SDS011;5168;47.854;7.944;2022-09-27T11:05:39;4.50;;;2.30;;
10246;SDS011;5168;47.854;7.944;2022-09-27T11:10:43;2.63;;;2.00;;
10246;SDS011;5168;47.854;7.944;2022-09-27T11:13:13;2.40;;;2.20;;
10246;SDS011;5168;47.854;7.944;2022-09-27T11:18:42;4.23;;;2.10;;
10246;SDS011;5168;47.854;7.944;2022-09-27T11:21:32;1.73;;;1.63;;
10246;SDS011;5168;47.854;7.944;2022-09-27T11:32:29;3.87;;;2.00;;
10246;SDS011;5168;47.854;7.944;2022-09-27T11:38:24;3.53;;;1.90;;
10246;SDS011;5168;47.854;7.944;2022-09-27T11:46:33;5.47;;;1.97;;
10246;SDS011;5168;47.854;7.944;2022-09-27T11:54:29;1.80;;;1.70;;
10246;SDS011;5168;47.854;7.944;2022-09-27T12:10:32;2.13;;;2.00;;
10246;SDS011;5168;47.854;7.944;2022-09-27T12:12:59;5.60;;;1.83;;
10246;SDS011;5168;47.854;7.944;2022-09-27T12:15:26;2.00;;;1.80;;
10246;SDS011;5168;47.854;7.944;2022-09-27T12:17:58;2.23;;;2.03;;
10246;SDS011;5168;47.854;7.944;2022-09-27T12:20:36;2.40;;;2.20;;
10246;SDS011;5168;47.854;7.944;2022-09-27T12:23:04;3.70;;;2.00;;
10246;SDS011;5168;47.854;7.944;2022-09-27T12:25:42;2.33;;;2.10;;
10246;SDS011;5168;47.854;7.944;2022-09-27T12:28:32;2.20;;;2.00;;
10246;SDS011;5168;47.854;7.944;2022-09-27T12:31:06;3.90;;;2.07;;
10246;SDS011;5168;47.854;7.944;2022-09-27T12:36:17;3.73;;;2.10;;
10246;SDS011;5168;47.854;7.944;2022-09-27T12:41:37;1.63;;;1.53;;
10246;SDS011;5168;47.854;7.944;2022-09-27T12:44:09;2.33;;;1.90;;
10246;SDS011;5168;47.854;7.944;2022-09-27T12:46:54;1.80;;;1.70;;
10246;SDS011;5168;47.854;7.944;2022-09-27T12:52:24;2.63;;;1.83;;
10246;SDS011;5168;47.854;7.944;2022-09-27T12:55:14;4.60;;;1.90;;
10246;SDS011;5168;47.854;7.944;2022-09-27T13:00:43;3.20;;;2.10;;
10246;SDS011;5168;47.854;7.944;2022-09-27T13:12:01;1.87;;;1.77;;
10246;SDS011;5168;47.854;7.944;2022-09-27T13:14:38;2.13;;;1.87;;
10246;SDS011;5168;47.854;7.944;2022-09-27T13:17:32;2.33;;;2.07;;
10246;SDS011;5168;47.854;7.944;2022-09-27T13:23:03;1.90;;;1.80;;
10246;SDS011;5168;47.854;7.944;2022-09-27T13:30:55;1.80;;;1.70;;
10246;SDS011;5168;47.854;7.944;2022-09-27T13:41:25;4.73;;;1.83;;
10246;SDS011;5168;47.854;7.944;2022-09-27T13:46:37;1.90;;;1.80;;
10246;SDS011;5168;47.854;7.944;2022-09-27T13:49:19;1.90;;;1.80;;
10246;SDS011;5168;47.854;7.944;2022-09-27T13:51:51;2.00;;;1.80;;
10246;SDS011;5168;47.854;7.944;2022-09-27T13:57:02;2.00;;;1.90;;
10246;SDS011;5168;47.854;7.944;2022-09-27T13:59:48;2.30;;;2.10;;
10246;SDS011;5168;47.854;7.944;2022-09-27T14:02:48;2.27;;;1.90;;
10246;SDS011;5168;47.854;7.944;2022-09-27T14:05:16;2.47;;;1.93;;
10246;SDS011;5168;47.854;7.944;2022-09-27T14:07:46;1.93;;;1.83;;
10246;SDS011;5168;47.854;7.944;2022-09-27T14:10:15;2.00;;;1.90;;
10246;SDS011;5168;47.854;7.944;2022-09-27T14:12:44;2.60;;;1.80;;
10246;SDS011;5168;47.854;7.944;2022-09-27T14:15:17;2.30;;;2.00;;
10246;SDS011;5168;47.854;7.944;2022-09-27T14:17:46;2.00;;;1.80;;
10246;SDS011;5168;47.854;7.944;2022-09-27T14:22:59;1.60;;;1.50;;
10246;SDS011;5168;47.854;7.944;2022-09-27T14:25:26;1.90;;;1.70;;
10246;SDS011;5168;47.854;7.944;2022-09-27T14:27:52;3.00;;;2.33;;
10246;SDS011;5168;47.854;7.944;2022-09-27T14:30:19;13.13;;;6.50;;
10246;SDS011;5168;47.854;7.944;2022-09-27T14:32:50;12.13;;;6.40;;
10246;SDS011;5168;47.854;7.944;2022-09-27T14:35:21;3.73;;;2.23;;
10246;SDS011;5168;47.854;7.944;2022-09-27T14:38:08;1.70;;;1.60;;
10246;SDS011;5168;47.854;7.944;2022-09-27T14:40:58;3.07;;;2.77;;
10246;SDS011;5168;47.854;7.944;2022-09-27T14:43:25;3.47;;;2.97;;
10246;SDS011;5168;47.854;7.944;2022-09-27T14:45:51;2.33;;;2.10;;
10246;SDS011;5168;47.854;7.944;2022-09-27T14:48:30;1.93;;;1.83;;
10246;SDS011;5168;47.854;7.944;2022-09-27T14:50:58;1.90;;;1.80;;
10246;SDS011;5168;47.854;7.944;2022-09-27T14:53:32;1.87;;;1.77;;
10246;SDS011;5168;47.854;7.944;2022-09-27T14:56:01;2.00;;;1.90;;
10246;SDS011;5168;47.854;7.944;2022-09-27T14:58:27;1.90;;;1.80;;
10246;SDS011;5168;47.854;7.944;2022-09-27T15:00:54;2.47;;;2.10;;
10246;SDS011;5168;47.854;7.944;2022-09-27T15:03:24;2.43;;;1.97;;
10246;SDS011;5168;47.854;7.944;2022-09-27T15:05:52;1.80;;;1.70;;
10246;SDS011;5168;47.854;7.944;2022-09-27T15:08:19;2.17;;;2.07;;
10246;SDS011;5168;47.854;7.944;2022-09-27T15:10:47;1.83;;;1.73;;
10246;SDS011;5168;47.854;7.944;2022-09-27T15:13:14;5.77;;;2.30;;
10246;SDS011;5168;47.854;7.944;2022-09-27T15:15:42;1.97;;;1.80;;
10246;SDS011;5168;47.854;7.944;2022-09-27T15:20:53;4.13;;;1.90;;
10246;SDS011;5168;47.854;7.944;2022-09-27T15:26:15;7.67;;;2.73;;
10246;SDS011;5168;47.854;7.944;2022-09-27T15:28:50;2.40;;;2.20;;
10246;SDS011;5168;47.854;7.944;2022-09-27T15:31:17;11.10;;;2.80;;
10246;SDS011;5168;47.854;7.944;2022-09-27T15:33:52;8.33;;;2.40;;
10246;SDS011;5168;47.854;7.944;2022-09-27T15:39:12;3.77;;;2.53;;
10246;SDS011;5168;47.854;7.944;2022-09-27T15:44:34;5.53;;;2.00;;
10246;SDS011;5168;47.854;7.944;2022-09-27T15:47:02;4.67;;;2.13;;
10246;SDS011;5168;47.854;7.944;2022-09-27T15:49:28;2.20;;;1.80;;
10246;SDS011;5168;47.854;7.944;2022-09-27T15:51:55;1.63;;;1.53;;
10246;SDS011;5168;47.854;7.944;2022-09-27T15:54:24;4.43;;;1.80;;
10246;SDS011;5168;47.854;7.944;2022-09-27T15:56:54;2.17;;;1.70;;
10246;SDS011;5168;47.854;7.944;2022-09-27T15:59:24;2.73;;;1.90;;
10246;SDS011;5168;47.854;7.944;2022-09-27T16:01:55;1.83;;;1.73;;
10246;SDS011;5168;47.854;7.944;2022-09-27T16:04:22;3.27;;;2.40;;
10246;SDS011;5168;47.854;7.944;2022-09-27T16:06:48;2.50;;;2.30;;
10246;SDS011;5168;47.854;7.944;2022-09-27T16:09:15;2.47;;;2.30;;
10246;SDS011;5168;47.854;7.944;2022-09-27T16:11:46;3.80;;;2.00;;
10246;SDS011;5168;47.854;7.944;2022-09-27T16:14:12;2.17;;;1.60;;
10246;SDS011;5168;47.854;7.944;2022-09-27T16:16:41;6.77;;;2.60;;
10246;SDS011;5168;47.854;7.944;2022-09-27T16:19:14;2.90;;;2.37;;
10246;SDS011;5168;47.854;7.944;2022-09-27T16:21:40;1.70;;;1.60;;
10246;SDS011;5168;47.854;7.944;2022-09-27T16:24:09;2.33;;;1.77;;
10246;SDS011;5168;47.854;7.944;2022-09-27T16:26:36;1.50;;;1.40;;
10246;SDS011;5168;47.854;7.944;2022-09-27T16:29:02;2.43;;;1.77;;
10246;SDS011;5168;47.854;7.944;2022-09-27T16:31:28;1.73;;;1.63;;
10246;SDS011;5168;47.854;7.944;2022-09-27T16:33:54;2.37;;;2.17;;
10246;SDS011;5168;47.854;7.944;2022-09-27T16:36:20;1.80;;;1.70;;
10246;SDS011;5168;47.854;7.944;2022-09-27T16:38:49;3.90;;;2.00;;
10246;SDS011;5168;47.854;7.944;2022-09-27T16:41:15;2.30;;;1.57;;
10246;SDS011;5168;47.854;7.944;2022-09-27T16:43:41;2.20;;;1.80;;
10246;SDS011;5168;47.854;7.944;2022-09-27T16:46:09;1.93;;;1.73;;
10246;SDS011;5168;47.854;7.944;2022-09-27T16:48:35;2.03;;;1.83;;
10246;SDS011;5168;47.854;7.944;2022-09-27T16:51:20;3.77;;;2.37;;
10246;SDS011;5168;47.854;7.944;2022-09-27T16:54:04;2.83;;;2.60;;
10246;SDS011;5168;47.854;7.944;2022-09-27T16:56:31;2.70;;;2.50;;
10246;SDS011;5168;47.854;7.944;2022-09-27T16:58:59;2.30;;;2.10;;
10246;SDS011;5168;47.854;7.944;2022-09-27T17:01:27;2.80;;;2.50;;
10246;SDS011;5168;47.854;7.944;2022-09-27T17:03:53;2.90;;;2.70;;
10246;SDS011;5168;47.854;7.944;2022-09-27T17:06:21;1.90;;;1.80;;
10246;SDS011;5168;47.854;7.944;2022-09-27T17:08:47;2.77;;;1.60;;
10246;SDS011;5168;47.854;7.944;2022-09-27T17:11:16;2.23;;;1.77;;
10246;SDS011;5168;47.854;7.944;2022-09-27T17:13:43;3.20;;;2.00;;
10246;SDS011;5168;47.854;7.944;2022-09-27T17:16:10;2.47;;;1.87;;
10246;SDS011;5168;47.854;7.944;2022-09-27T17:18:39;4.03;;;1.90;;
10246;SDS011;5168;47.854;7.944;2022-09-27T17:21:06;3.90;;;2.70;;
10246;SDS011;5168;47.854;7.944;2022-09-27T17:23:33;3.70;;;2.30;;
10246;SDS011;5168;47.854;7.944;2022-09-27T17:26:03;1.93;;;1.80;;
10246;SDS011;5168;47.854;7.944;2022-09-27T17:28:42;4.03;;;2.17;;
10246;SDS011;5168;47.854;7.944;2022-09-27T17:31:09;3.00;;;1.87;;
10246;SDS011;5168;47.854;7.944;2022-09-27T17:33:40;4.60;;;2.20;;
10246;SDS011;5168;47.854;7.944;2022-09-27T17:36:09;4.97;;;1.80;;
10246;SDS011;5168;47.854;7.944;2022-09-27T17:38:36;5.43;;;1.90;;
10246;SDS011;5168;47.854;7.944;2022-09-27T17:41:03;2.93;;;2.03;;
10246;SDS011;5168;47.854;7.944;2022-09-27T17:43:37;2.20;;;1.93;;
10246;SDS011;5168;47.854;7.944;2022-09-27T17:46:06;2.67;;;2.23;;
10246;SDS011;5168;47.854;7.944;2022-09-27T17:48:34;3.97;;;2.53;;
10246;SDS011;5168;47.854;7.944;2022-09-27T17:51:19;2.27;;;2.00;;
10246;SDS011;5168;47.854;7.944;2022-09-27T17:53:45;3.87;;;2.33;;
10246;SDS011;5168;47.854;7.944;2022-09-27T17:56:11;2.43;;;2.23;;
10246;SDS011;5168;47.854;7.944;2022-09-27T17:58:38;1.97;;;1.73;;
10246;SDS011;5168;47.854;7.944;2022-09-27T18:01:05;2.83;;;1.60;;
10246;SDS011;5168;47.854;7.944;2022-09-27T18:03:31;2.70;;;2.00;;
10246;SDS011;5168;47.854;7.944;2022-09-27T18:05:58;3.00;;;1.90;;
10246;SDS011;5168;47.854;7.944;2022-09-27T18:08:27;2.00;;;1.90;;